Time;durP1;ratioP1;P1;durP2;ratioP2;P2;SDS_P1;SDS_P2;PMS_P1;PMS_P2;Temp;Humidity;BMP_temperature;BMP_pressure;BME280_temperature;BME280_humidity;BME280_pressure;Samples;Min_cycle;Max_cycle;Signal;HPM_P1;HPM_P2
2023/08/24 00:01:53;;;;;;;7.85;3.70;;;;;;;18.26;100.00;101672.38;5066985;28;20059;-48
2023/08/24 00:04:21;;;;;;;9.80;4.22;;;;;;;18.18;100.00;101676.50;5070161;28;20106;-51
2023/08/24 00:06:49;;;;;;;7.38;3.45;;;;;;;18.12;100.00;101673.53;5067073;28;20060;-52
2023/08/24 00:09:18;;;;;;;10.07;4.43;;;;;;;18.05;100.00;101671.38;5072849;28;20509;-52
2023/08/24 00:11:47;;;;;;;11.57;4.70;;;;;;;18.16;100.00;101677.59;5071060;28;20113;-51
2023/08/24 00:14:15;;;;;;;8.75;4.70;;;;;;;18.09;100.00;101671.94;5071243;28;20048;-54
2023/08/24 00:16:43;;;;;;;9.15;4.38;;;;;;;18.06;100.00;101667.75;5069991;28;20071;-53
2023/08/24 00:19:12;;;;;;;7.60;4.40;;;;;;;18.04;100.00;101671.53;5070634;28;20052;-51
2023/08/24 00:21:40;;;;;;;9.32;4.40;;;;;;;18.11;100.00;101672.69;5072160;28;20041;-52
2023/08/24 00:24:08;;;;;;;7.20;4.13;;;;;;;18.02;100.00;101668.97;5072516;28;20402;-52
2023/08/24 00:26:37;;;;;;;9.00;4.60;;;;;;;18.02;100.00;101665.47;5069889;28;20047;-53
2023/08/24 00:29:06;;;;;;;9.48;4.82;;;;;;;18.04;100.00;101667.03;5071050;28;20402;-48
2023/08/24 00:31:34;;;;;;;7.78;4.70;;;;;;;17.96;100.00;101658.84;5070488;28;20040;-53
2023/08/24 00:34:02;;;;;;;8.48;4.72;;;;;;;17.92;100.00;101657.41;5070844;28;20083;-51
2023/08/24 00:36:30;;;;;;;11.23;5.38;;;;;;;18.00;100.00;101652.28;5071829;28;20060;-53
2023/08/24 00:38:59;;;;;;;9.25;5.32;;;;;;;17.99;100.00;101647.94;5074143;28;20050;-52
2023/08/24 00:41:27;;;;;;;8.98;4.95;;;;;;;17.93;100.00;101635.16;5074365;28;20053;-50
2023/08/24 00:43:57;;;;;;;10.02;4.75;;;;;;;17.88;100.00;101642.66;5071102;28;20126;-49
2023/08/24 00:46:27;;;;;;;9.25;5.50;;;;;;;17.87;100.00;101646.28;5069267;28;20052;-51
2023/08/24 00:48:57;;;;;;;12.80;5.00;;;;;;;17.87;100.00;101648.94;5072246;28;20045;-55
2023/08/24 00:51:25;;;;;;;10.57;5.47;;;;;;;17.90;100.00;101660.19;5069519;28;20083;-53
2023/08/24 00:53:54;;;;;;;11.55;5.05;;;;;;;17.90;100.00;101667.28;5069755;28;20051;-50
2023/08/24 00:56:24;;;;;;;10.25;5.60;;;;;;;17.97;100.00;101668.53;5073411;28;20066;-51
2023/08/24 00:58:54;;;;;;;11.35;5.47;;;;;;;17.95;100.00;101659.81;5074064;28;20048;-51
2023/08/24 01:01:24;;;;;;;10.65;5.03;;;;;;;17.99;100.00;101661.25;5072402;28;20123;-52
2023/08/24 01:03:53;;;;;;;8.43;5.40;;;;;;;17.90;100.00;101660.19;5069947;28;20434;-52
2023/08/24 01:06:21;;;;;;;10.40;5.22;;;;;;;17.83;100.00;101656.34;5069893;28;20094;-55
2023/08/24 01:08:49;;;;;;;11.45;6.15;;;;;;;17.79;100.00;101652.22;5069303;28;20059;-51
2023/08/24 01:11:32;;;;;;;11.00;7.30;;;;;;;17.76;100.00;101638.34;5070024;28;20055;-51
2023/08/24 01:14:09;;;;;;;11.70;7.22;;;;;;;17.78;100.00;101636.41;5070174;28;20059;-50
2023/08/24 01:16:41;;;;;;;11.82;6.97;;;;;;;17.77;100.00;101637.38;5070883;28;20141;-52
2023/08/24 01:19:17;;;;;;;;;;;;;;;17.75;100.00;101642.81;5073429;28;20059;-53
2023/08/24 01:21:45;;;;;;;12.25;6.45;;;;;;;17.79;100.00;101638.94;5070499;28;19931;-51
2023/08/24 01:24:20;;;;;;;11.77;6.80;;;;;;;17.76;100.00;101633.88;5069826;28;20104;-51
2023/08/24 01:26:50;;;;;;;12.55;7.20;;;;;;;17.66;100.00;101636.47;5070533;28;20059;-48
2023/08/24 01:29:21;;;;;;;;;;;;;;;17.71;100.00;101646.69;5073687;28;20068;-52
2023/08/24 01:31:50;;;;;;;12.02;6.60;;;;;;;17.72;100.00;101646.59;5073363;28;19920;-52
2023/08/24 01:34:18;;;;;;;13.38;7.05;;;;;;;17.76;100.00;101643.69;5071433;28;20052;-51
2023/08/24 01:36:46;;;;;;;10.43;6.60;;;;;;;17.70;100.00;101640.53;5066626;28;20060;-49
2023/08/24 01:39:22;;;;;;;12.75;7.22;;;;;;;17.80;100.00;101637.13;5069520;28;20071;-50
2023/08/24 01:41:54;;;;;;;9.98;7.05;;;;;;;17.76;100.00;101628.53;5069618;28;20044;-49
2023/08/24 01:44:24;;;;;;;10.83;7.00;;;;;;;17.69;100.00;101620.22;5072509;28;20052;-53
2023/08/24 01:46:53;;;;;;;11.57;7.50;;;;;;;17.69;100.00;101628.22;5071415;28;20114;-50
2023/08/24 01:49:23;;;;;;;11.75;6.72;;;;;;;17.71;100.00;101631.59;5068006;28;20515;-49
2023/08/24 01:51:52;;;;;;;11.80;7.45;;;;;;;17.66;100.00;101628.47;5067597;28;20048;-52
2023/08/24 01:54:20;;;;;;;12.80;7.20;;;;;;;17.62;100.00;101619.06;5069110;28;20036;-52
2023/08/24 01:56:48;;;;;;;11.90;6.95;;;;;;;17.65;100.00;101626.78;5069158;28;20040;-52
2023/08/24 01:59:17;;;;;;;11.00;7.85;;;;;;;17.63;100.00;101628.75;5069210;28;20140;-53
2023/08/24 02:01:48;;;;;;;12.07;7.82;;;;;;;17.65;100.00;101623.28;5069408;28;20052;-52
2023/08/24 02:04:16;;;;;;;15.15;8.65;;;;;;;17.65;100.00;101626.78;5069146;28;20050;-53
2023/08/24 02:06:44;;;;;;;16.50;8.23;;;;;;;17.62;100.00;101629.69;5066991;28;20048;-52
2023/08/24 02:09:13;;;;;;;16.38;8.98;;;;;;;17.60;100.00;101626.34;5067493;28;20048;-49
2023/08/24 02:11:41;;;;;;;13.48;8.27;;;;;;;17.55;100.00;101629.34;5068447;28;20052;-51
2023/08/24 02:14:09;;;;;;;14.23;8.90;;;;;;;17.55;100.00;101636.50;5068846;28;20032;-51
2023/08/24 02:16:39;;;;;;;14.27;8.65;;;;;;;17.55;100.00;101642.66;5068306;28;20049;-51
2023/08/24 02:19:07;;;;;;;14.02;9.35;;;;;;;17.54;100.00;101646.28;5068717;28;20052;-54
2023/08/24 02:21:37;;;;;;;13.48;8.32;;;;;;;17.57;100.00;101650.50;5067224;28;20044;-52
2023/08/24 02:24:06;;;;;;;13.10;8.55;;;;;;;17.63;100.00;101660.66;5068320;28;20060;-52
2023/08/24 02:26:34;;;;;;;12.75;8.52;;;;;;;17.65;100.00;101647.22;5068604;28;20141;-53
2023/08/24 02:29:02;;;;;;;12.00;8.25;;;;;;;17.72;100.00;101640.41;5068275;28;20044;-52
2023/08/24 02:31:31;;;;;;;13.50;8.77;;;;;;;17.67;100.00;101630.16;5068622;28;20394;-53
2023/08/24 02:34:00;;;;;;;13.38;9.48;;;;;;;17.65;100.00;101624.13;5068573;28;20040;-53
2023/08/24 02:36:32;;;;;;;13.60;8.45;;;;;;;17.67;100.00;101619.53;5067577;28;20139;-54
2023/08/24 02:39:01;;;;;;;13.98;8.65;;;;;;;17.65;100.00;101626.78;5071308;28;20548;-53
2023/08/24 02:41:30;;;;;;;14.82;9.63;;;;;;;17.66;100.00;101628.47;5068581;28;20453;-52
2023/08/24 02:43:58;;;;;;;15.05;9.30;;;;;;;17.70;100.00;101629.91;5069768;28;20045;-52
2023/08/24 02:46:26;;;;;;;13.43;8.57;;;;;;;17.73;100.00;101639.44;5071473;28;20052;-53
2023/08/24 02:48:54;;;;;;;12.45;8.77;;;;;;;17.72;100.00;101624.47;5071683;28;20051;-53
2023/08/24 02:51:24;;;;;;;14.05;8.70;;;;;;;17.71;100.00;101615.66;5065764;28;20067;-53
2023/08/24 02:53:52;;;;;;;13.00;9.75;;;;;;;17.81;100.00;101612.22;5067579;28;20442;-50
2023/08/24 02:56:20;;;;;;;13.35;9.00;;;;;;;17.82;100.00;101612.09;5067938;28;20057;-53
2023/08/24 02:58:48;;;;;;;18.80;10.05;;;;;;;17.78;100.00;101596.50;5068327;28;20406;-51
2023/08/24 03:01:17;;;;;;;13.55;9.30;;;;;;;17.80;100.00;101592.72;5068480;28;20052;-52
2023/08/24 03:03:45;;;;;;;14.57;9.88;;;;;;;17.76;100.00;101595.78;5070573;28;20388;-52
2023/08/24 03:06:13;;;;;;;14.68;9.85;;;;;;;17.72;100.00;101595.19;5068570;28;20052;-51
2023/08/24 03:08:43;;;;;;;14.30;10.07;;;;;;;17.73;100.00;101591.56;5066524;28;20479;-50
2023/08/24 03:11:11;;;;;;;15.52;10.27;;;;;;;17.72;100.00;101585.41;5085059;28;20102;-50
2023/08/24 03:13:39;;;;;;;15.20;10.93;;;;;;;17.67;100.00;101570.78;5071821;28;20097;-51
2023/08/24 03:16:07;;;;;;;13.90;10.55;;;;;;;17.68;100.00;101561.84;5071363;28;20471;-49
2023/08/24 03:18:36;;;;;;;14.73;10.13;;;;;;;17.69;100.00;101558.22;5071642;28;20052;-52
2023/08/24 03:21:04;;;;;;;17.23;10.57;;;;;;;17.67;100.00;101545.06;5071516;28;20048;-54
2023/08/24 03:23:32;;;;;;;17.50;10.98;;;;;;;17.60;100.00;101535.91;5070700;28;20036;-50
2023/08/24 03:26:03;;;;;;;14.98;10.75;;;;;;;17.63;100.00;101542.78;5070159;28;20097;-54
2023/08/24 03:28:31;;;;;;;16.65;10.35;;;;;;;17.66;100.00;101523.91;5071399;28;20068;-52
2023/08/24 03:30:59;;;;;;;15.02;10.98;;;;;;;17.53;100.00;101518.78;5071599;28;20522;-52
2023/08/24 03:33:27;;;;;;;16.73;10.63;;;;;;;17.55;100.00;101519.50;5071174;28;20053;-52
2023/08/24 03:35:56;;;;;;;15.20;11.68;;;;;;;17.56;100.00;101516.72;5071684;28;20052;-53
2023/08/24 03:38:24;;;;;;;16.55;11.50;;;;;;;17.55;100.00;101519.50;5071483;28;20052;-50
2023/08/24 03:40:52;;;;;;;17.92;11.20;;;;;;;17.62;100.00;101527.81;5072980;28;20045;-53
2023/08/24 03:43:21;;;;;;;16.58;10.93;;;;;;;17.61;100.00;101532.25;5074906;28;20136;-52
2023/08/24 03:45:49;;;;;;;14.75;10.73;;;;;;;17.61;100.00;101526.13;5075444;28;20057;-52
2023/08/24 03:48:17;;;;;;;17.05;11.88;;;;;;;17.58;100.00;101517.41;5075221;28;20048;-52
2023/08/24 03:50:46;;;;;;;19.92;11.48;;;;;;;17.55;100.00;101517.66;5075146;28;20127;-52
2023/08/24 03:53:14;;;;;;;15.57;10.63;;;;;;;17.53;100.00;101516.13;5075267;28;20051;-53
2023/08/24 03:55:42;;;;;;;17.80;11.13;;;;;;;17.51;100.00;101516.25;5075129;28;20501;-53
2023/08/24 03:58:10;;;;;;;15.68;12.00;;;;;;;17.43;100.00;101509.91;5075016;28;20052;-53
2023/08/24 04:00:41;;;;;;;16.83;11.60;;;;;;;17.44;100.00;101511.56;5074423;28;20049;-50
2023/08/24 04:03:09;;;;;;;17.20;11.02;;;;;;;17.42;100.00;101510.88;5074944;28;20055;-53
2023/08/24 04:05:38;;;;;;;18.80;11.63;;;;;;;17.38;100.00;101507.59;5072268;28;20044;-54
2023/08/24 04:08:07;;;;;;;16.23;12.43;;;;;;;17.34;100.00;101506.19;5069934;28;20055;-53
2023/08/24 04:10:39;;;;;;;16.05;11.57;;;;;;;17.32;100.00;101498.34;5074346;28;20044;-53
2023/08/24 04:13:07;;;;;;;15.55;11.27;;;;;;;17.35;100.00;101497.25;5074816;28;20055;-51
2023/08/24 04:15:35;;;;;;;16.42;11.57;;;;;;;17.30;100.00;101496.78;5074700;28;20051;-52
2023/08/24 04:18:05;;;;;;;15.20;11.10;;;;;;;17.30;100.00;101504.75;5074719;28;20437;-53
2023/08/24 04:20:33;;;;;;;17.60;11.50;;;;;;;17.29;100.00;101503.91;5074437;28;20406;-52
2023/08/24 04:23:03;;;;;;;15.45;11.60;;;;;;;17.29;100.00;101490.63;5075011;28;20048;-52
2023/08/24 04:25:35;;;;;;;;;;;;;;;17.31;100.00;101479.84;5075009;28;20052;-51
2023/08/24 04:28:03;;;;;;;17.08;11.52;;;;;;;17.27;100.00;101481.91;5074643;28;19950;-52
2023/08/24 04:30:33;;;;;;;17.90;11.13;;;;;;;17.18;100.00;101480.06;5074123;28;20507;-53
2023/08/24 04:33:03;;;;;;;13.73;10.05;;;;;;;17.24;100.00;101479.53;5074693;28;20098;-54
2023/08/24 04:35:36;;;;;;;16.92;10.60;;;;;;;17.24;100.00;101476.88;5073925;28;20045;-54
2023/08/24 04:38:04;;;;;;;14.85;10.73;;;;;;;17.10;100.00;101482.47;5073724;28;20051;-52
2023/08/24 04:40:49;;;;;;;17.00;11.48;;;;;;;17.06;100.00;101472.09;5074028;28;20048;-52
2023/08/24 04:43:17;;;;;;;14.60;10.98;;;;;;;17.03;100.00;101477.69;5054098;28;20049;-53
2023/08/24 04:45:48;;;;;;;15.63;11.43;;;;;;;17.04;100.00;101478.53;5066936;28;20048;-52
2023/08/24 04:48:16;;;;;;;16.88;11.50;;;;;;;17.03;100.00;101483.00;5073839;28;20056;-52
2023/08/24 04:50:46;;;;;;;16.55;11.88;;;;;;;17.00;100.00;101477.94;5074201;28;20064;-54
2023/08/24 04:53:16;;;;;;;16.17;11.55;;;;;;;17.05;100.00;101474.91;5073080;28;20057;-54
2023/08/24 04:55:45;;;;;;;17.45;11.75;;;;;;;16.97;100.00;101472.03;5073832;28;20045;-54
2023/08/24 04:58:14;;;;;;;15.75;11.70;;;;;;;16.96;100.00;101476.50;5074012;28;20135;-54
2023/08/24 05:00:42;;;;;;;16.58;12.65;;;;;;;16.87;100.00;101461.28;5073953;28;20041;-53
2023/08/24 05:03:11;;;;;;;18.88;12.02;;;;;;;16.93;100.00;101468.78;5074359;28;20052;-53
2023/08/24 05:05:41;;;;;;;16.77;12.73;;;;;;;16.89;100.00;101473.50;5073365;28;20036;-54
2023/08/24 05:08:11;;;;;;;16.25;13.10;;;;;;;16.88;100.00;101473.63;5073235;28;20041;-52
2023/08/24 05:10:41;;;;;;;18.75;12.45;;;;;;;16.90;100.00;101466.38;5073855;28;20536;-52
2023/08/24 05:13:09;;;;;;;17.23;12.05;;;;;;;16.91;100.00;101476.03;5073801;28;20044;-53
2023/08/24 05:15:37;;;;;;;18.63;12.60;;;;;;;16.92;100.00;101475.06;5073688;28;20042;-54
2023/08/24 05:18:05;;;;;;;20.90;12.10;;;;;;;17.00;100.00;101483.25;5073551;28;20045;-53
2023/08/24 05:20:34;;;;;;;15.57;11.35;;;;;;;17.04;100.00;101484.69;5073936;28;20049;-50
2023/08/24 05:23:02;;;;;;;17.05;12.13;;;;;;;17.10;100.00;101483.34;5073543;28;20047;-53
2023/08/24 05:25:33;;;;;;;15.60;11.25;;;;;;;17.12;100.00;101476.06;5073511;28;20479;-52
2023/08/24 05:28:02;;;;;;;16.45;12.20;;;;;;;17.16;100.00;101481.97;5071940;28;20060;-53
2023/08/24 05:30:33;;;;;;;15.27;12.18;;;;;;;17.11;100.00;101479.72;5073106;28;20032;-52
2023/08/24 05:33:02;;;;;;;18.55;12.63;;;;;;;17.14;100.00;101481.25;5073435;28;20148;-52
2023/08/24 05:35:30;;;;;;;15.02;12.18;;;;;;;17.16;100.00;101485.47;5073256;28;20048;-50
2023/08/24 05:37:58;;;;;;;17.58;12.23;;;;;;;17.23;100.00;101493.78;5073232;28;20044;-54
2023/08/24 05:40:26;;;;;;;15.63;12.55;;;;;;;17.19;100.00;101495.00;5073212;28;20068;-52
2023/08/24 05:42:55;;;;;;;16.10;12.20;;;;;;;17.20;100.00;101489.56;5072789;28;20048;-52
2023/08/24 05:45:24;;;;;;;14.35;12.07;;;;;;;17.22;100.00;101486.81;5073170;28;20060;-53
2023/08/24 05:47:56;;;;;;;17.58;12.57;;;;;;;17.26;100.00;101484.72;5073103;28;20068;-52
2023/08/24 05:50:24;;;;;;;18.23;13.15;;;;;;;17.24;100.00;101471.56;5072760;28;20048;-54
2023/08/24 05:52:52;;;;;;;16.70;12.88;;;;;;;17.27;100.00;101475.78;5072623;28;20437;-53
2023/08/24 05:55:20;;;;;;;20.73;13.50;;;;;;;17.30;100.00;101470.19;5072565;28;20123;-54
2023/08/24 05:57:49;;;;;;;17.73;12.88;;;;;;;17.29;100.00;101464.03;5072589;28;20131;-50
2023/08/24 06:00:22;;;;;;;19.83;13.32;;;;;;;17.29;100.00;101471.16;5072402;28;20059;-53
2023/08/24 06:02:50;;;;;;;;;;;;;;;17.32;100.00;101471.75;5073028;28;20479;-53
2023/08/24 06:05:21;;;;;;;17.02;12.43;;;;;;;17.40;100.00;101466.63;5071549;28;20363;-51
2023/08/24 06:07:49;;;;;;;16.17;12.02;;;;;;;17.49;100.00;101466.81;5072540;28;20507;-52
2023/08/24 06:10:18;;;;;;;15.35;12.32;;;;;;;17.54;100.00;101451.31;5072270;28;20048;-50
2023/08/24 06:12:46;;;;;;;22.17;12.88;;;;;;;17.57;100.00;101449.25;5071758;28;20399;-55
2023/08/24 06:15:15;;;;;;;18.45;13.23;;;;;;;17.62;100.00;101448.84;5071160;28;20133;-49
2023/08/24 06:17:46;;;;;;;18.23;12.00;;;;;;;17.66;100.00;101444.97;5072641;28;20048;-53
2023/08/24 06:20:15;;;;;;;19.35;12.50;;;;;;;17.71;100.00;101433.91;5072299;28;20426;-51
2023/08/24 06:22:43;;;;;;;16.52;13.25;;;;;;;17.71;100.00;101424.13;5071923;28;20044;-55
2023/08/24 06:25:11;;;;;;;17.27;13.18;;;;;;;17.77;100.00;101424.59;5071884;28;20044;-54
2023/08/24 06:27:39;;;;;;;17.40;13.18;;;;;;;17.79;100.00;101414.63;5070979;28;20058;-54
2023/08/24 06:30:08;;;;;;;16.80;13.60;;;;;;;17.80;100.00;101411.84;5072479;28;20123;-56
2023/08/24 06:32:36;;;;;;;16.40;13.02;;;;;;;17.88;100.00;101398.72;5071540;28;20082;-54
2023/08/24 06:35:07;;;;;;;18.70;13.88;;;;;;;17.93;100.00;101409.00;5071565;28;20048;-53
2023/08/24 06:37:35;;;;;;;15.35;12.68;;;;;;;17.99;100.00;101403.13;5071734;28;20055;-53
2023/08/24 06:40:05;;;;;;;15.45;13.07;;;;;;;18.07;100.00;101400.63;5072011;28;20407;-53
2023/08/24 06:42:33;;;;;;;17.98;13.55;;;;;;;18.17;100.00;101402.47;5071886;28;20503;-53
2023/08/24 06:45:01;;;;;;;21.98;13.88;;;;;;;18.21;100.00;101404.72;5071906;28;20442;-54
2023/08/24 06:47:32;;;;;;;17.60;12.60;;;;;;;18.32;100.00;101406.44;5071902;28;20098;-55
2023/08/24 06:50:00;;;;;;;19.58;13.75;;;;;;;18.45;100.00;101413.31;5071793;28;20056;-54
2023/08/24 06:52:30;;;;;;;18.13;13.63;;;;;;;18.54;100.00;101420.47;5071483;28;20379;-55
2023/08/24 06:54:58;;;;;;;17.92;12.48;;;;;;;18.61;100.00;101418.09;5070997;28;20495;-54
2023/08/24 06:57:26;;;;;;;16.38;12.73;;;;;;;18.68;100.00;101416.56;5071570;28;20407;-53
2023/08/24 06:59:54;;;;;;;17.00;12.40;;;;;;;18.78;100.00;101412.09;5071980;28;20527;-53
2023/08/24 07:02:22;;;;;;;22.98;14.45;;;;;;;18.94;100.00;101416.03;5069117;28;20037;-54
2023/08/24 07:04:51;;;;;;;20.65;13.70;;;;;;;19.01;100.00;101412.69;5067763;28;20048;-52
2023/08/24 07:07:19;;;;;;;18.33;14.13;;;;;;;19.18;100.00;101402.28;5082396;28;20505;-54
2023/08/24 07:09:49;;;;;;;17.38;12.80;;;;;;;19.27;100.00;101408.59;5071041;28;20127;-55
2023/08/24 07:12:17;;;;;;;16.38;13.00;;;;;;;19.36;100.00;101402.38;5068117;28;20456;-54
2023/08/24 07:14:45;;;;;;;18.65;12.25;;;;;;;19.51;100.00;101400.09;5067865;28;20102;-53
2023/08/24 07:17:13;;;;;;;16.15;12.35;;;;;;;19.66;100.00;101390.66;5069906;28;20374;-55
2023/08/24 07:19:41;;;;;;;17.23;13.05;;;;;;;19.82;100.00;101394.53;5071729;28;20386;-54
2023/08/24 07:22:09;;;;;;;15.68;12.23;;;;;;;19.95;100.00;101380.84;5067218;28;20495;-54
2023/08/24 07:24:38;;;;;;;19.85;13.05;;;;;;;20.13;100.00;101373.72;5067393;28;20511;-54
2023/08/24 07:27:16;;;;;;;17.40;12.30;;;;;;;20.24;100.00;101378.00;5066859;28;20060;-54
2023/08/24 07:29:47;;;;;;;19.58;13.10;;;;;;;20.39;100.00;101378.34;5059557;28;20404;-54
2023/08/24 07:32:15;;;;;;;14.55;11.93;;;;;;;20.51;100.00;101384.31;5070549;28;20052;-54
2023/08/24 07:34:44;;;;;;;20.73;12.20;;;;;;;20.70;100.00;101386.84;5070686;28;20052;-54
2023/08/24 07:37:12;;;;;;;16.25;12.15;;;;;;;20.87;100.00;101395.00;5066403;28;20052;-54
2023/08/24 07:39:40;;;;;;;17.73;12.15;;;;;;;21.01;100.00;101382.91;5067570;28;20052;-55
2023/08/24 07:42:08;;;;;;;15.48;11.52;;;;;;;21.19;100.00;101390.91;5067682;28;20060;-53
2023/08/24 07:44:37;;;;;;;15.55;12.02;;;;;;;21.27;100.00;101390.97;5067368;28;20386;-54
2023/08/24 07:47:06;;;;;;;14.50;10.70;;;;;;;21.39;100.00;101389.72;5067515;28;20155;-51
2023/08/24 07:49:34;;;;;;;15.55;11.40;;;;;;;21.55;100.00;101383.63;5067670;28;20106;-54
2023/08/24 07:52:02;;;;;;;17.98;12.43;;;;;;;21.69;100.00;101389.38;5066323;28;20920;-53
2023/08/24 07:54:30;;;;;;;15.43;11.80;;;;;;;21.86;100.00;101383.09;5066735;28;20116;-55
2023/08/24 07:56:59;;;;;;;17.88;12.80;;;;;;;22.06;100.00;101386.38;5067293;28;20044;-54
2023/08/24 07:59:27;;;;;;;18.58;11.10;;;;;;;22.23;100.00;101375.69;5067275;28;20491;-54
2023/08/24 08:01:56;;;;;;;14.63;10.90;;;;;;;22.46;100.00;101383.97;5070921;28;20515;-55
2023/08/24 08:04:27;;;;;;;16.55;11.30;;;;;;;22.71;100.00;101390.19;5071014;28;20048;-53
2023/08/24 08:06:56;;;;;;;16.60;11.43;;;;;;;22.86;100.00;101390.34;5071009;28;20123;-55
2023/08/24 08:09:24;;;;;;;16.00;10.43;;;;;;;22.88;100.00;101385.66;5070872;28;20072;-55
2023/08/24 08:11:53;;;;;;;13.70;9.77;;;;;;;23.16;100.00;101384.50;5067536;28;20445;-55
2023/08/24 08:14:21;;;;;;;14.75;11.05;;;;;;;23.41;100.00;101387.97;5067319;28;20403;-55
2023/08/24 08:16:49;;;;;;;15.65;11.23;;;;;;;23.56;100.00;101396.13;5066640;28;20135;-56
2023/08/24 08:19:21;;;;;;;14.63;10.70;;;;;;;23.78;100.00;101397.25;5067295;28;20040;-52
2023/08/24 08:21:50;;;;;;;14.77;11.32;;;;;;;24.01;100.00;101396.50;5065501;28;20147;-53
2023/08/24 08:24:18;;;;;;;16.05;11.18;;;;;;;24.06;100.00;101392.28;5067402;28;20052;-54
2023/08/24 08:26:53;;;;;;;17.33;11.45;;;;;;;24.32;100.00;101385.75;5026845;28;20546;-52
2023/08/24 08:29:21;;;;;;;16.45;11.52;;;;;;;24.51;100.00;101386.31;5032203;28;20064;-52
2023/08/24 08:31:49;;;;;;;15.45;10.70;;;;;;;24.71;100.00;101384.84;5034894;28;20056;-54
2023/08/24 08:34:21;;;;;;;15.07;10.93;;;;;;;24.75;100.00;101375.38;5032179;28;20057;-57
2023/08/24 08:36:49;;;;;;;16.65;11.30;;;;;;;24.69;100.00;101380.66;5028609;28;20059;-58
2023/08/24 08:39:18;;;;;;;15.30;11.45;;;;;;;24.80;100.00;101382.91;5030423;28;20073;-57
2023/08/24 08:41:50;;;;;;;15.48;10.00;;;;;;;25.10;100.00;101391.91;5030266;28;20597;-57
2023/08/24 08:44:19;;;;;;;15.80;10.85;;;;;;;25.09;100.00;101384.00;5032289;28;20049;-57
2023/08/24 08:46:48;;;;;;;16.27;10.65;;;;;;;25.32;100.00;101370.50;5034059;28;20053;-57
2023/08/24 08:49:17;;;;;;;15.10;9.30;;;;;;;25.42;100.00;101375.63;5031281;28;20049;-57
2023/08/24 08:51:46;;;;;;;15.00;9.25;;;;;;;25.45;100.00;101356.41;5028369;28;20168;-57
2023/08/24 08:54:15;;;;;;;14.60;10.00;;;;;;;25.45;100.00;101345.63;5030793;28;20091;-57
2023/08/24 08:56:43;;;;;;;14.38;8.73;;;;;;;25.58;100.00;101340.44;5034140;28;20049;-57
2023/08/24 08:59:14;;;;;;;11.27;8.60;;;;;;;25.78;100.00;101339.84;5034080;28;20047;-57
2023/08/24 09:01:43;;;;;;;13.60;9.20;;;;;;;25.56;100.00;101330.88;5032834;28;20065;-57
2023/08/24 09:04:12;;;;;;;13.13;9.00;;;;;;;25.73;100.00;101310.78;5027931;28;20597;-57
2023/08/24 09:06:40;;;;;;;15.35;8.82;;;;;;;25.83;100.00;101305.09;5031267;28;20049;-57
2023/08/24 09:09:13;;;;;;;12.13;9.02;;;;;;;26.10;100.00;101300.03;5032243;28;20049;-57
2023/08/24 09:11:42;;;;;;;12.20;8.60;;;;;;;26.14;100.00;101294.03;5029606;28;20042;-57
2023/08/24 09:14:10;;;;;;;18.65;8.93;;;;;;;26.29;100.00;101287.78;5030207;28;20052;-57
2023/08/24 09:16:38;;;;;;;15.15;8.82;;;;;;;26.36;100.00;101277.88;5011697;28;20135;-57
2023/08/24 09:19:07;;;;;;;15.00;8.85;;;;;;;26.37;100.00;101282.25;5010409;28;20054;-57
2023/08/24 09:21:38;;;;;;;13.63;8.35;;;;;;;26.49;100.00;101278.00;5028059;28;20064;-57
2023/08/24 09:24:07;;;;;;;13.90;8.70;;;;;;;26.76;100.00;101280.91;5031668;28;20092;-57
2023/08/24 09:26:42;;;;;;;13.10;8.32;;;;;;;26.98;100.00;101268.19;5068031;28;20387;-57
2023/08/24 09:29:15;;;;;;;13.43;8.55;;;;;;;27.02;100.00;101262.38;5070162;28;20126;-57
2023/08/24 09:31:44;;;;;;;15.23;8.05;;;;;;;27.13;100.00;101251.88;5070746;28;20041;-58
2023/08/24 09:34:13;;;;;;;11.95;8.02;;;;;;;27.19;100.00;101244.84;5073386;28;20507;-57
2023/08/24 09:36:41;;;;;;;12.50;7.63;;;;;;;27.33;100.00;101234.91;5071672;28;20120;-57
2023/08/24 09:39:13;;;;;;;12.07;8.05;;;;;;;27.45;100.00;101233.34;5070140;28;20072;-57
2023/08/24 09:41:44;;;;;;;13.05;8.23;;;;;;;27.53;100.00;101221.53;5068030;28;20448;-57
2023/08/24 09:44:12;;;;;;;14.13;7.85;;;;;;;27.88;100.00;101215.97;5069039;28;20083;-57
2023/08/24 09:46:41;;;;;;;15.98;8.88;;;;;;;27.97;100.00;101216.63;5073094;28;20063;-58
2023/08/24 09:49:11;;;;;;;14.20;9.15;;;;;;;27.96;100.00;101207.69;5069486;28;20090;-57
2023/08/24 09:51:40;;;;;;;11.95;8.20;;;;;;;28.15;100.00;101222.28;5067504;28;20048;-57
2023/08/24 09:54:10;;;;;;;15.85;7.85;;;;;;;28.33;100.00;101228.91;5069732;28;20044;-58
2023/08/24 09:56:39;;;;;;;12.38;7.93;;;;;;;28.30;100.00;101232.84;5069184;28;20063;-58
2023/08/24 09:59:14;;;;;;;12.90;8.90;;;;;;;28.49;100.00;101233.06;5069307;28;20036;-57
2023/08/24 10:01:47;;;;;;;14.27;8.25;;;;;;;28.60;100.00;101234.28;5069114;28;20041;-57
2023/08/24 10:04:18;;;;;;;14.65;7.85;;;;;;;28.34;100.00;101235.97;5069163;28;20799;-57
2023/08/24 10:06:52;;;;;;;15.90;8.00;;;;;;;28.36;100.00;101243.88;5067492;28;20040;-58
2023/08/24 10:09:23;;;;;;;13.98;7.95;;;;;;;28.28;100.00;101247.66;5069767;28;20094;-57
2023/08/24 10:11:57;;;;;;;13.02;7.45;;;;;;;28.31;100.00;101241.81;5069433;28;20056;-57
2023/08/24 10:14:32;;;;;;;11.85;8.40;;;;;;;28.26;100.00;101242.41;5068884;28;20049;-57
2023/08/24 10:17:00;;;;;;;12.60;6.88;;;;;;;28.23;100.00;101245.56;5072319;28;20509;-57
2023/08/24 10:19:30;;;;;;;10.52;6.65;;;;;;;28.32;100.00;101254.31;5068620;28;20127;-58
2023/08/24 10:22:01;;;;;;;10.55;6.88;;;;;;;28.35;100.00;101259.28;5067323;28;20036;-58
2023/08/24 10:24:30;;;;;;;11.68;8.02;;;;;;;28.35;100.00;101267.41;5068504;28;20117;-53
2023/08/24 10:27:00;;;;;;;10.65;8.07;;;;;;;28.34;100.00;101260.31;5068666;28;20119;-58
2023/08/24 10:29:30;;;;;;;14.98;8.52;;;;;;;28.26;100.00;101252.41;5068309;28;20036;-59
2023/08/24 10:31:59;;;;;;;12.10;7.40;;;;;;;28.13;100.00;101237.03;5068316;28;20055;-59
2023/08/24 10:34:27;;;;;;;13.27;7.90;;;;;;;28.08;100.00;101239.53;5068278;28;20036;-55
2023/08/24 10:36:57;;;;;;;13.35;7.88;;;;;;;28.07;100.00;101232.44;5070136;28;20044;-54
2023/08/24 10:39:28;;;;;;;13.38;7.93;;;;;;;28.00;100.00;101218.94;5071834;28;20041;-54
2023/08/24 10:41:57;;;;;;;13.30;8.60;;;;;;;27.90;100.00;101211.19;5068234;28;20051;-59
2023/08/24 10:44:34;;;;;;;11.93;8.20;;;;;;;27.93;100.00;101197.28;5066861;28;20481;-60
2023/08/24 10:47:18;;;;;;;14.50;7.97;;;;;;;27.86;100.00;101201.03;5069906;28;20048;-59
2023/08/24 10:50:00;;;;;;;12.45;8.10;;;;;;;27.71;100.00;101188.53;5071637;28;20098;-59
2023/08/24 10:52:32;;;;;;;12.65;8.02;;;;;;;27.59;100.00;101198.28;5066237;28;20105;-59
2023/08/24 10:55:02;;;;;;;;;;;;;;;27.56;100.00;101198.69;5068721;28;20052;-59
2023/08/24 10:57:36;;;;;;;14.95;7.57;;;;;;;27.41;100.00;101198.84;5068248;28;20662;-59
2023/08/24 11:00:06;;;;;;;11.43;6.65;;;;;;;27.24;100.00;101196.47;5070319;28;20040;-60
2023/08/24 11:02:47;;;;;;;12.00;6.40;;;;;;;27.06;100.00;101191.63;5071576;28;20474;-59
2023/08/24 11:05:17;;;;;;;15.27;6.32;;;;;;;27.03;100.00;101185.81;5050718;28;20391;-59
2023/08/24 11:07:54;;;;;;;14.13;6.55;;;;;;;26.82;100.00;101185.69;5066841;28;20159;-59
2023/08/24 11:10:23;;;;;;;12.18;6.53;;;;;;;26.75;100.00;101192.94;5067781;28;20126;-59
2023/08/24 11:13:08;;;;;;;9.68;5.68;;;;;;;26.72;100.00;101189.78;5067266;28;20083;-59
2023/08/24 11:15:41;;;;;;;10.55;6.65;;;;;;;26.58;100.00;101186.16;5067239;28;20469;-60
2023/08/24 11:18:23;;;;;;;12.50;6.32;;;;;;;26.44;100.00;101193.34;5067555;28;20056;-60